METAR v bližini

 

LJLJ - Ljubljana/Brnik, Slovenia
Oddaljenost od postaje: W 41km
Podatki zajeti: 26/01/2020 12:30
Pretežno oblačno
Pretežno oblačno
 Veter iz smeri ENE
Veter: ENE 6 km/h
Temperatura: 6°C
Rosišče: 5°C
Vlažnost: 93%
Tlak: 1020 hPa
Oblačnost: Pretežno oblačno
Vidljivost: 10 km
Podrobnosti o oblakih: Rahlo oblačno 91 m
Delno oblačno 1067 m
Pretežno oblačno 1524 m
2020/01/26 11:30 LJLJ 261130Z 07003KT 9999 FEW003 SCT035 BKN050 06/05 Q1020 NOSIG
LJMB - Maribor, Slovenia
Oddaljenost od postaje: NE 63km
Podatki zajeti: 26/01/2020 12:30
Megla ki zmrzuje, Oblačno
Megla ki zmrzuje, Oblačno
 Veter iz smeri spremenljiv
Veter: spremenljiv 2 km/h
Temperatura: -1°C
Rosišče: -1°C
Vlažnost: 100%
Tlak: 1021 hPa
Stanje: Megla ki zmrzuje
Oblačnost: Oblačno
Vidljivost: 0 km
Podrobnosti o oblakih: Oblačno 61 m
2020/01/26 11:30 LJMB 261130Z VRB01KT 0350 R32/0600N FZFG VV002 M01/M01 Q1021 R99/19//95
 
LJPZ - Portoroz, Slovenia
Oddaljenost od postaje: SW 130km
Podatki zajeti: 26/01/2020 12:30
Meglica, Oblačno
Meglica, Oblačno
 Veter iz smeri SE
Veter: SE 6 km/h
Temperatura: 9°C
Rosišče: 8°C
Vlažnost: 94%
Tlak: 1021 hPa
Stanje: Meglica
Oblačnost: Oblačno
Vidljivost: 4 km
Podrobnosti o oblakih: Delno oblačno 152 m
Oblačno 305 m
2020/01/26 11:30 LJPZ 261130Z 13003KT 090V180 4000 BR SCT005 OVC010 09/08 Q1021
LJCE - Cerklje, Slovenia
Oddaljenost od postaje: ESE 49km
Podatki zajeti: 26/01/2020 12:30
Megla, Oblačno
Megla, Oblačno
 Veter iz smeri spremenljiv
Veter: spremenljiv 4 km/h
Temperatura: 2°C
Rosišče: 2°C
Vlažnost: 100%
Tlak: 1021 hPa
Stanje: Megla
Oblačnost: Oblačno
Vidljivost: 1 km
Podrobnosti o oblakih: Oblačno 152 m
2020/01/26 11:30 LJCE 261130Z VRB02KT 0800 FG OVC005 02/02 Q1021 RMK AMB
 
LDZA - Zagreb/Pleso, Croatia
Oddaljenost od postaje: ESE 96km
Podatki zajeti: 26/01/2020 12:30
Meglica, Oblačno
Meglica, Oblačno
 Veter iz smeri spremenljiv
Veter: spremenljiv 4 km/h
Temperatura: 1°C
Rosišče: 1°C
Vlažnost: 100%
Tlak: 1022 hPa
Stanje: Meglica
Oblačnost: Oblačno
Vidljivost: 3 km
Podrobnosti o oblakih: Oblačno 91 m
2020/01/26 11:30 LDZA 261130Z VRB02KT 2500 BR OVC003 01/01 Q1022 TEMPO BKN006
LDRI - Rijeka/Omisalj, Croatia
Oddaljenost od postaje: SSW 109km
Podatki zajeti: 26/01/2020 12:30
Meglica, Oblačno
Meglica, Oblačno
 Veter iz smeri NW
Veter: NW 7 km/h
Temperatura: 11°C
Rosišče: 8°C
Vlažnost: 82%
Tlak: 1021 hPa
Stanje: Meglica
Oblačnost: Oblačno
Vidljivost: 2 km
Podrobnosti o oblakih: Oblačno 396 m
2020/01/26 11:30 LDRI 261130Z 31004KT 270V360 1500 BR OVC013 11/08 Q1021
 
LDPL - Pula, Croatia
Oddaljenost od postaje: SSW 164km
Podatki zajeti: 26/01/2020 12:30
Oblačno
Oblačno
 Veter iz smeri W
Veter: W 7 km/h
Temperatura: 10°C
Občutek mraza zaradi vetra: 9°C
Rosišče: 8°C
Vlažnost: 88%
Tlak: 1021 hPa
Oblačnost: Oblačno
Vidljivost: 6 km
Podrobnosti o oblakih: Delno oblačno 213 m
Oblačno 305 m
2020/01/26 11:30 LDPL 261130Z 26004KT 6000 SCT007 OVC010 10/08 Q1021 NOSIG
LOWK - Klagenfurt(Civ/M, Austria
Oddaljenost od postaje: NW 76km
Podatki zajeti: 26/01/2020 12:20
Rahlo dežuje, Pretežno oblačno
Rahlo dežuje, Pretežno oblačno
 Veter iz smeri spremenljiv
Veter: spremenljiv 4 km/h
Temperatura: 4°C
Rosišče: -2°C
Vlažnost: 65%
Tlak: 1020 hPa
Stanje: Rahlo dežuje
Oblačnost: Pretežno oblačno
Vidljivost: 10 km
Podrobnosti o oblakih: Rahlo oblačno 1372 m
Delno oblačno 1829 m
Pretežno oblačno 3048 m
2020/01/26 11:20 LOWK 261120Z VRB02KT 9999 -RA FEW045 SCT060 BKN100 04/M02 Q1020 R10L/19//95 NOSIG
 
LOWG - Graz (mil/Civ), Austria
Oddaljenost od postaje: NNE 100km
Podatki zajeti: 26/01/2020 12:20
Freezing patches of, Megla, Oblačno
Freezing patches of, Megla, Oblačno
 Veter iz smeri spremenljiv
Veter: spremenljiv 4 km/h
Temperatura: -2°C
Rosišče: -3°C
Vlažnost: 93%
Tlak: 1021 hPa
Stanje: Freezing patches of, Megla
Oblačnost: Oblačno
Vidljivost: 2 km
Podrobnosti o oblakih: Oblačno 61 m
2020/01/26 11:20 LOWG 261120Z VRB02KT 1500 1200SE FZBCFG VV002 M02/M03 Q1021 R17/19//95 BECMG OVC004
LOAN - Wr.neustadt East, Austria
Oddaljenost od postaje: NNE 212km
Podatki zajeti: 26/01/2020 12:00
Meglica, Oblačno
Meglica, Oblačno
 Veter iz smeri spremenljiv
Veter: spremenljiv 4 km/h
Stanje: Meglica
Oblačnost: Oblačno
Vidljivost: 2 km
Podrobnosti o oblakih: Oblačno 91 m
2020/01/26 11:00 LOAN 261100Z VRB02KT 1800 BR VV003
 
LIPQ - Ronchi Legionari, Italy
Oddaljenost od postaje: SW 35km
Podatki zajeti: 26/01/2020 12:20
Meglica, Oblačno
Meglica, Oblačno
 Veter iz smeri SE
Veter: SE 6 km/h
Temperatura: 9°C
Rosišče: 9°C
Vlažnost: 100%
Tlak: 1021 hPa
Stanje: Meglica
Oblačnost: Oblačno
Vidljivost: 1 km
Podrobnosti o oblakih: Oblačno 183 m
2020/01/26 11:20 LIPQ 261120Z 13003KT 1000 R09/P1500N BR OVC006 09/09 Q1021
LIVT - Trieste, Italy
Oddaljenost od postaje: WSW 109km
Podatki zajeti: 26/01/2020 11:55
Meglica, Delno oblačno
Meglica, Delno oblačno
 Veter iz smeri spremenljiv
Veter: spremenljiv 0 km/h
Temperatura: 10°C
Rosišče: 9°C
Vlažnost: 94%
Tlak: 1021 hPa
Stanje: Meglica
Oblačnost: Delno oblačno
Vidljivost: 4 km
Podrobnosti o oblakih: Delno oblačno 305 m
Delno oblačno 762 m
2020/01/26 10:55 LIVT 261055Z /////KT 4000 BR SCT010 SCT025 10/09 Q1021 RMK OVC QUK 0 QUL 0 VIS MAR 4 KM VIS MIN 4000
 
LIVO - Tarvisio, Italy
Oddaljenost od postaje: NNW 49km
Podatki zajeti: 26/01/2020 11:55
Rahlo dežuje, Oblačno
Rahlo dežuje, Oblačno
 Veter iz smeri calm
Veter: Calm
Temperatura: 3°C
Rosišče: 0°C
Vlažnost: 81%
Tlak: 1019 hPa
Stanje: Rahlo dežuje
Oblačnost: Oblačno
Vidljivost: 10 km
Podrobnosti o oblakih: Oblačno 610 m
2020/01/26 10:55 LIVO 261055Z 00000KT 9999 -RA OVC020 03/00 Q1019 RMK OVC VIS MIN 9999
LIPZ - Venezia/Tessera, Italy
Oddaljenost od postaje: WSW 217km
Podatki zajeti: 26/01/2020 12:20
Meglica, Pretežno oblačno
Meglica, Pretežno oblačno
 Veter iz smeri SW
Veter: SW 7 km/h
Temperatura: 8°C
Občutek mraza zaradi vetra: 7°C
Rosišče: 6°C
Vlažnost: 87%
Tlak: 1021 hPa
Stanje: Meglica
Oblačnost: Pretežno oblačno
Vidljivost: 4 km
Podrobnosti o oblakih: Pretežno oblačno 610 m
2020/01/26 11:20 LIPZ 261120Z 23004KT 3500 BR BKN020 08/06 Q1021 NOSIG
 
LHSM - Balaton, Hungary
Oddaljenost od postaje: ENE 177km
Podatki zajeti: 26/01/2020 12:15
Meglica, Oblačno
Meglica, Oblačno
 Veter iz smeri spremenljiv
Veter: spremenljiv 4 km/h
Temperatura: 0°C
Rosišče: 0°C
Vlažnost: 100%
Tlak: 1022 hPa
Stanje: Meglica
Oblačnost: Oblačno
Vidljivost: 2 km
Podrobnosti o oblakih: Oblačno 61 m
2020/01/26 11:15 LHSM 261115Z AUTO VRB02KT 2300 BR OVC002 M00/M00 Q1022 NOSIG